sensor_id;sensor_type;location;lat;lon;timestamp;P1;durP1;ratioP1;P2;durP2;ratioP2
76439;SDS011;65274;44.982;20.060;2023-02-15T00:00:10;62.45;;;29.25;;
76439;SDS011;65274;44.982;20.060;2023-02-15T00:02:36;55.40;;;26.92;;
76439;SDS011;65274;44.982;20.060;2023-02-15T00:05:02;50.25;;;26.15;;
76439;SDS011;65274;44.982;20.060;2023-02-15T00:07:28;45.03;;;24.13;;
76439;SDS011;65274;44.982;20.060;2023-02-15T00:09:54;43.10;;;22.38;;
76439;SDS011;65274;44.982;20.060;2023-02-15T00:12:20;48.70;;;22.27;;
76439;SDS011;65274;44.982;20.060;2023-02-15T00:14:47;49.92;;;25.23;;
76439;SDS011;65274;44.982;20.060;2023-02-15T00:17:13;42.30;;;24.45;;
76439;SDS011;65274;44.982;20.060;2023-02-15T00:19:39;45.30;;;23.75;;
76439;SDS011;65274;44.982;20.060;2023-02-15T00:22:05;43.30;;;22.67;;
76439;SDS011;65274;44.982;20.060;2023-02-15T00:24:32;47.47;;;20.98;;
76439;SDS011;65274;44.982;20.060;2023-02-15T00:26:58;47.35;;;22.55;;
76439;SDS011;65274;44.982;20.060;2023-02-15T00:29:24;53.20;;;27.63;;
76439;SDS011;65274;44.982;20.060;2023-02-15T00:31:50;65.53;;;30.45;;
76439;SDS011;65274;44.982;20.060;2023-02-15T00:34:21;67.80;;;30.35;;
76439;SDS011;65274;44.982;20.060;2023-02-15T00:36:47;69.00;;;32.83;;
76439;SDS011;65274;44.982;20.060;2023-02-15T00:39:14;58.03;;;28.05;;
76439;SDS011;65274;44.982;20.060;2023-02-15T00:41:40;53.33;;;25.67;;
76439;SDS011;65274;44.982;20.060;2023-02-15T00:44:07;51.50;;;27.17;;
76439;SDS011;65274;44.982;20.060;2023-02-15T00:46:33;54.95;;;25.48;;
76439;SDS011;65274;44.982;20.060;2023-02-15T00:49:00;52.20;;;25.80;;
76439;SDS011;65274;44.982;20.060;2023-02-15T00:51:26;43.97;;;24.33;;
76439;SDS011;65274;44.982;20.060;2023-02-15T00:53:52;42.70;;;21.88;;
76439;SDS011;65274;44.982;20.060;2023-02-15T00:56:18;40.15;;;21.80;;
76439;SDS011;65274;44.982;20.060;2023-02-15T00:58:45;45.92;;;25.10;;
76439;SDS011;65274;44.982;20.060;2023-02-15T01:01:12;39.90;;;20.90;;
76439;SDS011;65274;44.982;20.060;2023-02-15T01:03:38;42.92;;;22.58;;
76439;SDS011;65274;44.982;20.060;2023-02-15T01:06:06;42.05;;;21.38;;
76439;SDS011;65274;44.982;20.060;2023-02-15T01:08:33;42.83;;;21.95;;
76439;SDS011;65274;44.982;20.060;2023-02-15T01:11:03;43.67;;;22.52;;
76439;SDS011;65274;44.982;20.060;2023-02-15T01:13:29;45.47;;;24.75;;
76439;SDS011;65274;44.982;20.060;2023-02-15T01:15:55;52.28;;;25.05;;
76439;SDS011;65274;44.982;20.060;2023-02-15T01:18:21;45.75;;;22.98;;
76439;SDS011;65274;44.982;20.060;2023-02-15T01:20:47;52.97;;;28.10;;
76439;SDS011;65274;44.982;20.060;2023-02-15T01:23:14;56.22;;;24.20;;
76439;SDS011;65274;44.982;20.060;2023-02-15T01:25:40;44.60;;;22.70;;
76439;SDS011;65274;44.982;20.060;2023-02-15T01:28:06;45.47;;;23.80;;
76439;SDS011;65274;44.982;20.060;2023-02-15T01:30:32;46.45;;;22.50;;
76439;SDS011;65274;44.982;20.060;2023-02-15T01:32:58;42.08;;;21.92;;
76439;SDS011;65274;44.982;20.060;2023-02-15T01:35:26;42.58;;;22.63;;
76439;SDS011;65274;44.982;20.060;2023-02-15T01:37:52;45.53;;;23.95;;
76439;SDS011;65274;44.982;20.060;2023-02-15T01:40:18;48.35;;;24.15;;
76439;SDS011;65274;44.982;20.060;2023-02-15T01:42:45;48.55;;;24.23;;
76439;SDS011;65274;44.982;20.060;2023-02-15T01:47:54;52.53;;;27.33;;
76439;SDS011;65274;44.982;20.060;2023-02-15T01:50:29;56.40;;;27.92;;
76439;SDS011;65274;44.982;20.060;2023-02-15T01:52:58;53.17;;;27.88;;
76439;SDS011;65274;44.982;20.060;2023-02-15T01:55:25;52.17;;;26.15;;
76439;SDS011;65274;44.982;20.060;2023-02-15T01:57:52;52.45;;;26.67;;
76439;SDS011;65274;44.982;20.060;2023-02-15T02:00:18;54.97;;;24.65;;
76439;SDS011;65274;44.982;20.060;2023-02-15T02:02:46;52.25;;;25.70;;
76439;SDS011;65274;44.982;20.060;2023-02-15T02:05:15;57.72;;;27.80;;
76439;SDS011;65274;44.982;20.060;2023-02-15T02:07:42;51.75;;;24.27;;
76439;SDS011;65274;44.982;20.060;2023-02-15T02:10:11;51.95;;;24.33;;
76439;SDS011;65274;44.982;20.060;2023-02-15T02:12:37;50.40;;;26.83;;
76439;SDS011;65274;44.982;20.060;2023-02-15T02:15:05;48.45;;;25.38;;
76439;SDS011;65274;44.982;20.060;2023-02-15T02:17:42;49.90;;;26.35;;
76439;SDS011;65274;44.982;20.060;2023-02-15T02:20:30;40.78;;;22.75;;
76439;SDS011;65274;44.982;20.060;2023-02-15T02:28:55;53.55;;;23.38;;
76439;SDS011;65274;44.982;20.060;2023-02-15T02:36:06;57.13;;;25.17;;
76439;SDS011;65274;44.982;20.060;2023-02-15T02:41:17;42.20;;;21.33;;
76439;SDS011;65274;44.982;20.060;2023-02-15T02:44:03;39.28;;;20.08;;
76439;SDS011;65274;44.982;20.060;2023-02-15T02:46:31;42.45;;;22.20;;
76439;SDS011;65274;44.982;20.060;2023-02-15T02:48:59;43.97;;;21.70;;
76439;SDS011;65274;44.982;20.060;2023-02-15T02:51:26;44.78;;;21.88;;
76439;SDS011;65274;44.982;20.060;2023-02-15T02:53:56;40.97;;;23.02;;
76439;SDS011;65274;44.982;20.060;2023-02-15T02:56:27;38.95;;;22.05;;
76439;SDS011;65274;44.982;20.060;2023-02-15T02:58:56;40.80;;;21.77;;
76439;SDS011;65274;44.982;20.060;2023-02-15T03:01:30;41.20;;;22.02;;
76439;SDS011;65274;44.982;20.060;2023-02-15T03:03:59;36.08;;;19.80;;
76439;SDS011;65274;44.982;20.060;2023-02-15T03:06:38;40.78;;;20.35;;
76439;SDS011;65274;44.982;20.060;2023-02-15T03:09:08;42.97;;;20.58;;
76439;SDS011;65274;44.982;20.060;2023-02-15T03:11:39;41.05;;;19.27;;
76439;SDS011;65274;44.982;20.060;2023-02-15T03:14:06;46.20;;;21.30;;
76439;SDS011;65274;44.982;20.060;2023-02-15T03:16:32;45.58;;;21.83;;
76439;SDS011;65274;44.982;20.060;2023-02-15T03:19:02;37.88;;;19.55;;
76439;SDS011;65274;44.982;20.060;2023-02-15T03:21:39;41.33;;;17.70;;
76439;SDS011;65274;44.982;20.060;2023-02-15T03:24:12;36.28;;;18.77;;
76439;SDS011;65274;44.982;20.060;2023-02-15T03:26:40;37.47;;;18.73;;
76439;SDS011;65274;44.982;20.060;2023-02-15T03:29:07;40.80;;;22.50;;
76439;SDS011;65274;44.982;20.060;2023-02-15T03:31:35;41.47;;;19.98;;
76439;SDS011;65274;44.982;20.060;2023-02-15T03:36:32;37.15;;;17.58;;
76439;SDS011;65274;44.982;20.060;2023-02-15T03:39:06;41.03;;;21.48;;
76439;SDS011;65274;44.982;20.060;2023-02-15T03:41:34;46.42;;;22.67;;
76439;SDS011;65274;44.982;20.060;2023-02-15T03:44:05;48.40;;;23.17;;
76439;SDS011;65274;44.982;20.060;2023-02-15T03:46:33;45.17;;;23.70;;
76439;SDS011;65274;44.982;20.060;2023-02-15T03:49:05;56.63;;;25.33;;
76439;SDS011;65274;44.982;20.060;2023-02-15T03:51:34;54.42;;;25.67;;
76439;SDS011;65274;44.982;20.060;2023-02-15T03:54:12;55.65;;;24.00;;
76439;SDS011;65274;44.982;20.060;2023-02-15T03:56:59;49.08;;;24.35;;
76439;SDS011;65274;44.982;20.060;2023-02-15T03:59:45;57.65;;;25.35;;
76439;SDS011;65274;44.982;20.060;2023-02-15T04:02:32;58.45;;;25.33;;
76439;SDS011;65274;44.982;20.060;2023-02-15T04:05:00;59.78;;;26.50;;
76439;SDS011;65274;44.982;20.060;2023-02-15T04:07:26;51.95;;;24.83;;
76439;SDS011;65274;44.982;20.060;2023-02-15T04:09:52;44.72;;;24.63;;
76439;SDS011;65274;44.982;20.060;2023-02-15T04:12:37;48.85;;;23.55;;
76439;SDS011;65274;44.982;20.060;2023-02-15T04:15:03;46.40;;;23.40;;
76439;SDS011;65274;44.982;20.060;2023-02-15T04:17:48;43.70;;;20.25;;
76439;SDS011;65274;44.982;20.060;2023-02-15T04:20:14;47.35;;;23.30;;
76439;SDS011;65274;44.982;20.060;2023-02-15T04:22:59;49.67;;;23.23;;
76439;SDS011;65274;44.982;20.060;2023-02-15T04:25:44;49.35;;;22.17;;
76439;SDS011;65274;44.982;20.060;2023-02-15T04:28:10;43.10;;;21.10;;
76439;SDS011;65274;44.982;20.060;2023-02-15T04:30:36;52.13;;;23.23;;
76439;SDS011;65274;44.982;20.060;2023-02-15T04:33:02;45.78;;;22.30;;
76439;SDS011;65274;44.982;20.060;2023-02-15T04:35:28;42.33;;;20.88;;
76439;SDS011;65274;44.982;20.060;2023-02-15T04:37:56;44.35;;;22.42;;
76439;SDS011;65274;44.982;20.060;2023-02-15T04:40:22;40.33;;;19.00;;
76439;SDS011;65274;44.982;20.060;2023-02-15T04:42:48;40.53;;;20.88;;
76439;SDS011;65274;44.982;20.060;2023-02-15T04:45:14;42.92;;;22.80;;
76439;SDS011;65274;44.982;20.060;2023-02-15T04:47:40;41.88;;;21.08;;
76439;SDS011;65274;44.982;20.060;2023-02-15T04:50:07;36.30;;;20.27;;
76439;SDS011;65274;44.982;20.060;2023-02-15T04:52:33;41.95;;;20.55;;
76439;SDS011;65274;44.982;20.060;2023-02-15T04:54:59;47.83;;;23.45;;
76439;SDS011;65274;44.982;20.060;2023-02-15T04:57:25;44.63;;;21.60;;
76439;SDS011;65274;44.982;20.060;2023-02-15T04:59:51;43.97;;;24.83;;
76439;SDS011;65274;44.982;20.060;2023-02-15T05:02:17;41.40;;;20.40;;
76439;SDS011;65274;44.982;20.060;2023-02-15T05:04:43;38.22;;;18.55;;
76439;SDS011;65274;44.982;20.060;2023-02-15T05:07:09;45.45;;;25.48;;
76439;SDS011;65274;44.982;20.060;2023-02-15T05:09:35;58.10;;;25.45;;
76439;SDS011;65274;44.982;20.060;2023-02-15T05:12:02;57.85;;;26.85;;
76439;SDS011;65274;44.982;20.060;2023-02-15T05:14:28;56.83;;;24.48;;
76439;SDS011;65274;44.982;20.060;2023-02-15T05:16:54;49.15;;;24.92;;
76439;SDS011;65274;44.982;20.060;2023-02-15T05:19:20;41.83;;;19.35;;
76439;SDS011;65274;44.982;20.060;2023-02-15T05:21:49;37.20;;;18.50;;
76439;SDS011;65274;44.982;20.060;2023-02-15T05:24:15;39.05;;;19.63;;
76439;SDS011;65274;44.982;20.060;2023-02-15T05:27:00;38.80;;;18.42;;
76439;SDS011;65274;44.982;20.060;2023-02-15T05:29:44;40.00;;;19.15;;
76439;SDS011;65274;44.982;20.060;2023-02-15T05:32:12;41.95;;;19.48;;
76439;SDS011;65274;44.982;20.060;2023-02-15T05:34:38;43.00;;;21.35;;
76439;SDS011;65274;44.982;20.060;2023-02-15T05:37:04;46.80;;;21.90;;
76439;SDS011;65274;44.982;20.060;2023-02-15T05:39:30;48.20;;;22.75;;
76439;SDS011;65274;44.982;20.060;2023-02-15T05:41:59;39.85;;;22.50;;
76439;SDS011;65274;44.982;20.060;2023-02-15T05:44:25;46.97;;;22.80;;
76439;SDS011;65274;44.982;20.060;2023-02-15T05:46:51;52.42;;;24.48;;
76439;SDS011;65274;44.982;20.060;2023-02-15T05:49:17;51.22;;;24.02;;
76439;SDS011;65274;44.982;20.060;2023-02-15T05:51:43;74.55;;;32.13;;
76439;SDS011;65274;44.982;20.060;2023-02-15T05:54:09;61.90;;;29.67;;
76439;SDS011;65274;44.982;20.060;2023-02-15T05:56:35;67.25;;;30.63;;
76439;SDS011;65274;44.982;20.060;2023-02-15T05:59:01;72.10;;;31.85;;
76439;SDS011;65274;44.982;20.060;2023-02-15T06:01:28;69.80;;;31.70;;
76439;SDS011;65274;44.982;20.060;2023-02-15T06:03:54;74.25;;;32.80;;
76439;SDS011;65274;44.982;20.060;2023-02-15T06:06:20;68.88;;;33.53;;
76439;SDS011;65274;44.982;20.060;2023-02-15T06:08:47;76.30;;;38.90;;
76439;SDS011;65274;44.982;20.060;2023-02-15T06:11:13;68.22;;;33.40;;
76439;SDS011;65274;44.982;20.060;2023-02-15T06:13:39;62.85;;;32.67;;
76439;SDS011;65274;44.982;20.060;2023-02-15T06:16:05;62.90;;;30.42;;
76439;SDS011;65274;44.982;20.060;2023-02-15T06:18:32;57.03;;;29.75;;
76439;SDS011;65274;44.982;20.060;2023-02-15T06:20:58;58.83;;;29.85;;
76439;SDS011;65274;44.982;20.060;2023-02-15T06:23:24;60.72;;;30.15;;
76439;SDS011;65274;44.982;20.060;2023-02-15T06:25:50;68.70;;;31.60;;
76439;SDS011;65274;44.982;20.060;2023-02-15T06:28:16;64.35;;;32.13;;
76439;SDS011;65274;44.982;20.060;2023-02-15T06:30:42;70.50;;;35.40;;
76439;SDS011;65274;44.982;20.060;2023-02-15T06:33:08;64.22;;;33.97;;
76439;SDS011;65274;44.982;20.060;2023-02-15T06:35:34;60.58;;;30.55;;
76439;SDS011;65274;44.982;20.060;2023-02-15T06:38:00;62.70;;;33.45;;
76439;SDS011;65274;44.982;20.060;2023-02-15T06:40:26;68.07;;;35.38;;
76439;SDS011;65274;44.982;20.060;2023-02-15T06:42:52;63.13;;;34.25;;
76439;SDS011;65274;44.982;20.060;2023-02-15T06:45:18;63.15;;;31.88;;
76439;SDS011;65274;44.982;20.060;2023-02-15T06:47:44;71.88;;;34.97;;
76439;SDS011;65274;44.982;20.060;2023-02-15T06:50:10;76.32;;;39.15;;
76439;SDS011;65274;44.982;20.060;2023-02-15T06:52:36;76.35;;;38.50;;
76439;SDS011;65274;44.982;20.060;2023-02-15T06:55:02;73.57;;;38.38;;
76439;SDS011;65274;44.982;20.060;2023-02-15T06:57:29;74.72;;;36.53;;
76439;SDS011;65274;44.982;20.060;2023-02-15T06:59:55;74.95;;;42.72;;
76439;SDS011;65274;44.982;20.060;2023-02-15T07:02:23;81.25;;;45.50;;
76439;SDS011;65274;44.982;20.060;2023-02-15T07:04:49;68.65;;;35.70;;
76439;SDS011;65274;44.982;20.060;2023-02-15T07:07:15;63.22;;;31.70;;
76439;SDS011;65274;44.982;20.060;2023-02-15T07:09:41;67.35;;;34.15;;
76439;SDS011;65274;44.982;20.060;2023-02-15T07:12:07;68.57;;;36.38;;
76439;SDS011;65274;44.982;20.060;2023-02-15T07:14:52;64.78;;;36.10;;
76439;SDS011;65274;44.982;20.060;2023-02-15T07:17:18;151.88;;;78.78;;
76439;SDS011;65274;44.982;20.060;2023-02-15T07:19:44;112.03;;;52.78;;
76439;SDS011;65274;44.982;20.060;2023-02-15T07:22:10;203.10;;;90.32;;
76439;SDS011;65274;44.982;20.060;2023-02-15T07:24:36;180.05;;;89.38;;
76439;SDS011;65274;44.982;20.060;2023-02-15T07:27:02;137.80;;;81.38;;
76439;SDS011;65274;44.982;20.060;2023-02-15T07:29:28;80.47;;;49.33;;
76439;SDS011;65274;44.982;20.060;2023-02-15T07:31:54;178.80;;;91.35;;
76439;SDS011;65274;44.982;20.060;2023-02-15T07:34:20;85.28;;;48.25;;
76439;SDS011;65274;44.982;20.060;2023-02-15T07:36:46;70.55;;;35.75;;
76439;SDS011;65274;44.982;20.060;2023-02-15T07:39:12;56.67;;;31.48;;
76439;SDS011;65274;44.982;20.060;2023-02-15T07:41:39;52.50;;;28.77;;
76439;SDS011;65274;44.982;20.060;2023-02-15T07:44:05;53.28;;;30.05;;
76439;SDS011;65274;44.982;20.060;2023-02-15T07:46:31;58.78;;;29.75;;
76439;SDS011;65274;44.982;20.060;2023-02-15T07:48:57;56.88;;;29.30;;
76439;SDS011;65274;44.982;20.060;2023-02-15T07:51:23;72.25;;;36.85;;
76439;SDS011;65274;44.982;20.060;2023-02-15T07:53:49;89.13;;;52.60;;
76439;SDS011;65274;44.982;20.060;2023-02-15T07:56:16;64.55;;;34.53;;
76439;SDS011;65274;44.982;20.060;2023-02-15T07:58:42;55.10;;;29.75;;
76439;SDS011;65274;44.982;20.060;2023-02-15T08:03:43;61.53;;;31.75;;
76439;SDS011;65274;44.982;20.060;2023-02-15T08:06:09;63.30;;;31.48;;
76439;SDS011;65274;44.982;20.060;2023-02-15T08:08:39;57.03;;;32.15;;
76439;SDS011;65274;44.982;20.060;2023-02-15T08:14:00;69.25;;;38.63;;
76439;SDS011;65274;44.982;20.060;2023-02-15T08:16:31;56.10;;;30.73;;
76439;SDS011;65274;44.982;20.060;2023-02-15T08:18:58;43.63;;;24.45;;
76439;SDS011;65274;44.982;20.060;2023-02-15T08:21:26;49.95;;;25.05;;
76439;SDS011;65274;44.982;20.060;2023-02-15T08:23:52;53.70;;;26.33;;
76439;SDS011;65274;44.982;20.060;2023-02-15T08:26:19;42.33;;;24.45;;
76439;SDS011;65274;44.982;20.060;2023-02-15T08:28:45;48.70;;;27.05;;
76439;SDS011;65274;44.982;20.060;2023-02-15T08:31:12;51.67;;;28.40;;
76439;SDS011;65274;44.982;20.060;2023-02-15T08:33:38;36.90;;;22.80;;
76439;SDS011;65274;44.982;20.060;2023-02-15T08:36:05;41.45;;;23.30;;
76439;SDS011;65274;44.982;20.060;2023-02-15T08:38:32;35.53;;;21.23;;
76439;SDS011;65274;44.982;20.060;2023-02-15T08:41:11;99.60;;;50.80;;
76439;SDS011;65274;44.982;20.060;2023-02-15T08:43:37;37.55;;;20.20;;
76439;SDS011;65274;44.982;20.060;2023-02-15T08:46:04;34.97;;;20.70;;
76439;SDS011;65274;44.982;20.060;2023-02-15T08:48:30;39.55;;;23.85;;
76439;SDS011;65274;44.982;20.060;2023-02-15T08:50:56;38.88;;;24.50;;
76439;SDS011;65274;44.982;20.060;2023-02-15T08:53:22;35.20;;;22.10;;
76439;SDS011;65274;44.982;20.060;2023-02-15T08:55:57;32.08;;;19.88;;
76439;SDS011;65274;44.982;20.060;2023-02-15T08:58:24;35.88;;;20.23;;
76439;SDS011;65274;44.982;20.060;2023-02-15T09:00:51;33.47;;;19.02;;
76439;SDS011;65274;44.982;20.060;2023-02-15T09:03:17;33.60;;;18.92;;
76439;SDS011;65274;44.982;20.060;2023-02-15T09:05:43;36.17;;;19.70;;
76439;SDS011;65274;44.982;20.060;2023-02-15T09:08:09;27.63;;;18.33;;
76439;SDS011;65274;44.982;20.060;2023-02-15T09:10:35;28.80;;;19.17;;
76439;SDS011;65274;44.982;20.060;2023-02-15T09:13:02;25.42;;;15.70;;
76439;SDS011;65274;44.982;20.060;2023-02-15T09:15:28;28.70;;;19.35;;
76439;SDS011;65274;44.982;20.060;2023-02-15T09:17:54;26.40;;;15.57;;
76439;SDS011;65274;44.982;20.060;2023-02-15T09:20:20;26.95;;;18.05;;
76439;SDS011;65274;44.982;20.060;2023-02-15T09:22:47;23.40;;;16.67;;
76439;SDS011;65274;44.982;20.060;2023-02-15T09:25:13;26.80;;;18.02;;
76439;SDS011;65274;44.982;20.060;2023-02-15T09:27:39;22.35;;;16.27;;
76439;SDS011;65274;44.982;20.060;2023-02-15T09:30:06;28.08;;;18.38;;
76439;SDS011;65274;44.982;20.060;2023-02-15T09:32:32;39.25;;;35.15;;
76439;SDS011;65274;44.982;20.060;2023-02-15T09:34:58;21.98;;;16.50;;
76439;SDS011;65274;44.982;20.060;2023-02-15T09:37:24;22.02;;;16.27;;
76439;SDS011;65274;44.982;20.060;2023-02-15T09:39:50;23.55;;;18.30;;
76439;SDS011;65274;44.982;20.060;2023-02-15T09:47:49;22.60;;;16.83;;
76439;SDS011;65274;44.982;20.060;2023-02-15T10:16:51;37.30;;;26.85;;
76439;SDS011;65274;44.982;20.060;2023-02-15T10:26:48;33.78;;;21.17;;
76439;SDS011;65274;44.982;20.060;2023-02-15T10:34:26;31.50;;;16.98;;
76439;SDS011;65274;44.982;20.060;2023-02-15T10:50:15;30.02;;;18.52;;
76439;SDS011;65274;44.982;20.060;2023-02-15T10:55:35;26.38;;;16.58;;
76439;SDS011;65274;44.982;20.060;2023-02-15T11:06:15;23.88;;;16.27;;
76439;SDS011;65274;44.982;20.060;2023-02-15T11:08:44;28.75;;;18.17;;
76439;SDS011;65274;44.982;20.060;2023-02-15T11:11:15;26.15;;;16.85;;
76439;SDS011;65274;44.982;20.060;2023-02-15T11:13:47;20.88;;;14.27;;
76439;SDS011;65274;44.982;20.060;2023-02-15T11:16:19;22.92;;;13.55;;
76439;SDS011;65274;44.982;20.060;2023-02-15T11:18:57;25.33;;;15.98;;
76439;SDS011;65274;44.982;20.060;2023-02-15T11:21:31;33.03;;;17.88;;
76439;SDS011;65274;44.982;20.060;2023-02-15T11:24:09;21.42;;;14.77;;
76439;SDS011;65274;44.982;20.060;2023-02-15T11:31:40;55.15;;;19.65;;
76439;SDS011;65274;44.982;20.060;2023-02-15T11:34:12;29.00;;;17.17;;
76439;SDS011;65274;44.982;20.060;2023-02-15T11:36:41;29.00;;;18.13;;
76439;SDS011;65274;44.982;20.060;2023-02-15T11:39:10;29.50;;;18.88;;
76439;SDS011;65274;44.982;20.060;2023-02-15T11:41:37;28.67;;;17.45;;
76439;SDS011;65274;44.982;20.060;2023-02-15T11:46:37;103.38;;;62.75;;
76439;SDS011;65274;44.982;20.060;2023-02-15T11:51:45;27.20;;;17.55;;
76439;SDS011;65274;44.982;20.060;2023-02-15T11:54:13;30.35;;;18.00;;
76439;SDS011;65274;44.982;20.060;2023-02-15T11:56:40;30.70;;;18.65;;
76439;SDS011;65274;44.982;20.060;2023-02-15T11:59:09;27.83;;;17.45;;
76439;SDS011;65274;44.982;20.060;2023-02-15T12:06:37;27.50;;;16.55;;
76439;SDS011;65274;44.982;20.060;2023-02-15T12:11:49;35.47;;;19.27;;
76439;SDS011;65274;44.982;20.060;2023-02-15T12:14:15;37.35;;;23.08;;
76439;SDS011;65274;44.982;20.060;2023-02-15T12:16:45;30.63;;;19.83;;
76439;SDS011;65274;44.982;20.060;2023-02-15T12:19:16;31.00;;;20.13;;
76439;SDS011;65274;44.982;20.060;2023-02-15T12:21:45;28.00;;;17.63;;
76439;SDS011;65274;44.982;20.060;2023-02-15T12:26:41;27.58;;;17.52;;
76439;SDS011;65274;44.982;20.060;2023-02-15T12:29:12;24.83;;;16.30;;
76439;SDS011;65274;44.982;20.060;2023-02-15T12:31:41;24.63;;;17.05;;
76439;SDS011;65274;44.982;20.060;2023-02-15T12:34:29;24.33;;;15.95;;
76439;SDS011;65274;44.982;20.060;2023-02-15T12:36:57;28.42;;;18.58;;
76439;SDS011;65274;44.982;20.060;2023-02-15T12:39:24;29.25;;;17.77;;
76439;SDS011;65274;44.982;20.060;2023-02-15T12:46:56;23.98;;;16.08;;
76439;SDS011;65274;44.982;20.060;2023-02-15T12:49:22;24.07;;;16.20;;
76439;SDS011;65274;44.982;20.060;2023-02-15T12:51:56;27.90;;;16.63;;
76439;SDS011;65274;44.982;20.060;2023-02-15T13:02:51;28.67;;;17.02;;
76439;SDS011;65274;44.982;20.060;2023-02-15T13:05:30;25.50;;;15.73;;
76439;SDS011;65274;44.982;20.060;2023-02-15T13:07:58;26.08;;;17.80;;
76439;SDS011;65274;44.982;20.060;2023-02-15T13:12:53;25.30;;;16.02;;
76439;SDS011;65274;44.982;20.060;2023-02-15T13:15:44;25.88;;;16.95;;
76439;SDS011;65274;44.982;20.060;2023-02-15T13:18:10;28.17;;;18.15;;
76439;SDS011;65274;44.982;20.060;2023-02-15T13:20:38;26.95;;;19.08;;
76439;SDS011;65274;44.982;20.060;2023-02-15T13:23:08;29.48;;;16.92;;
76439;SDS011;65274;44.982;20.060;2023-02-15T13:25:45;29.42;;;19.83;;
76439;SDS011;65274;44.982;20.060;2023-02-15T13:28:15;26.55;;;17.10;;
76439;SDS011;65274;44.982;20.060;2023-02-15T13:30:43;27.00;;;16.58;;
76439;SDS011;65274;44.982;20.060;2023-02-15T13:33:29;28.63;;;17.02;;
76439;SDS011;65274;44.982;20.060;2023-02-15T13:36:17;25.15;;;16.77;;
76439;SDS011;65274;44.982;20.060;2023-02-15T13:38:46;21.65;;;14.57;;
76439;SDS011;65274;44.982;20.060;2023-02-15T13:41:16;23.55;;;15.52;;
76439;SDS011;65274;44.982;20.060;2023-02-15T13:43:48;28.00;;;16.80;;
76439;SDS011;65274;44.982;20.060;2023-02-15T13:46:18;24.70;;;16.70;;
76439;SDS011;65274;44.982;20.060;2023-02-15T13:54:14;29.52;;;18.67;;
76439;SDS011;65274;44.982;20.060;2023-02-15T13:57:01;29.30;;;17.40;;
76439;SDS011;65274;44.982;20.060;2023-02-15T14:20:14;26.15;;;15.82;;
76439;SDS011;65274;44.982;20.060;2023-02-15T14:22:46;24.67;;;15.10;;
76439;SDS011;65274;44.982;20.060;2023-02-15T14:30:23;26.60;;;17.13;;
76439;SDS011;65274;44.982;20.060;2023-02-15T14:32:53;30.00;;;17.88;;
76439;SDS011;65274;44.982;20.060;2023-02-15T14:37:58;24.63;;;16.77;;
76439;SDS011;65274;44.982;20.060;2023-02-15T14:40:46;28.30;;;17.58;;
76439;SDS011;65274;44.982;20.060;2023-02-15T14:48:45;28.63;;;18.52;;
76439;SDS011;65274;44.982;20.060;2023-02-15T14:53:56;29.60;;;17.92;;
76439;SDS011;65274;44.982;20.060;2023-02-15T14:56:23;31.13;;;19.80;;
76439;SDS011;65274;44.982;20.060;2023-02-15T15:01:17;27.08;;;16.98;;
76439;SDS011;65274;44.982;20.060;2023-02-15T15:03:51;31.73;;;19.52;;
76439;SDS011;65274;44.982;20.060;2023-02-15T15:06:37;33.40;;;19.67;;
76439;SDS011;65274;44.982;20.060;2023-02-15T15:14:03;36.58;;;21.23;;
76439;SDS011;65274;44.982;20.060;2023-02-15T15:16:30;34.50;;;20.10;;
76439;SDS011;65274;44.982;20.060;2023-02-15T15:18:57;30.15;;;20.65;;
76439;SDS011;65274;44.982;20.060;2023-02-15T15:24:09;31.55;;;17.90;;
76439;SDS011;65274;44.982;20.060;2023-02-15T15:26:35;30.38;;;18.33;;
76439;SDS011;65274;44.982;20.060;2023-02-15T15:29:05;35.08;;;18.67;;
76439;SDS011;65274;44.982;20.060;2023-02-15T15:34:13;31.38;;;18.30;;
76439;SDS011;65274;44.982;20.060;2023-02-15T15:50:12;64.22;;;29.85;;
76439;SDS011;65274;44.982;20.060;2023-02-15T15:52:46;77.03;;;34.10;;
76439;SDS011;65274;44.982;20.060;2023-02-15T15:55:14;92.82;;;46.25;;
76439;SDS011;65274;44.982;20.060;2023-02-15T15:57:42;236.88;;;87.78;;
76439;SDS011;65274;44.982;20.060;2023-02-15T16:02:51;161.98;;;71.05;;
76439;SDS011;65274;44.982;20.060;2023-02-15T16:05:17;104.50;;;48.08;;
76439;SDS011;65274;44.982;20.060;2023-02-15T16:07:44;76.38;;;36.45;;
76439;SDS011;65274;44.982;20.060;2023-02-15T16:10:24;80.95;;;37.55;;
76439;SDS011;65274;44.982;20.060;2023-02-15T16:12:50;53.60;;;28.83;;
76439;SDS011;65274;44.982;20.060;2023-02-15T16:15:22;49.47;;;25.67;;
76439;SDS011;65274;44.982;20.060;2023-02-15T16:17:50;63.63;;;29.15;;
76439;SDS011;65274;44.982;20.060;2023-02-15T16:20:21;69.28;;;31.33;;
76439;SDS011;65274;44.982;20.060;2023-02-15T16:22:49;71.78;;;31.70;;
76439;SDS011;65274;44.982;20.060;2023-02-15T16:27:42;62.22;;;28.00;;
76439;SDS011;65274;44.982;20.060;2023-02-15T16:30:26;87.30;;;34.15;;
76439;SDS011;65274;44.982;20.060;2023-02-15T16:32:53;59.83;;;27.50;;
76439;SDS011;65274;44.982;20.060;2023-02-15T16:35:20;64.72;;;31.25;;
76439;SDS011;65274;44.982;20.060;2023-02-15T16:37:46;60.38;;;30.55;;
76439;SDS011;65274;44.982;20.060;2023-02-15T16:42:51;54.30;;;26.98;;
76439;SDS011;65274;44.982;20.060;2023-02-15T16:45:18;78.60;;;35.30;;
76439;SDS011;65274;44.982;20.060;2023-02-15T16:47:46;54.85;;;25.20;;
76439;SDS011;65274;44.982;20.060;2023-02-15T16:50:30;53.15;;;26.00;;
76439;SDS011;65274;44.982;20.060;2023-02-15T16:52:57;57.78;;;27.83;;
76439;SDS011;65274;44.982;20.060;2023-02-15T16:55:28;62.80;;;27.23;;
76439;SDS011;65274;44.982;20.060;2023-02-15T16:57:58;310.08;;;131.63;;
76439;SDS011;65274;44.982;20.060;2023-02-15T17:00:26;74.35;;;34.20;;
76439;SDS011;65274;44.982;20.060;2023-02-15T17:03:04;69.45;;;31.42;;
76439;SDS011;65274;44.982;20.060;2023-02-15T17:05:31;61.22;;;30.90;;
76439;SDS011;65274;44.982;20.060;2023-02-15T17:08:17;65.13;;;30.98;;
76439;SDS011;65274;44.982;20.060;2023-02-15T17:11:00;64.05;;;33.25;;
76439;SDS011;65274;44.982;20.060;2023-02-15T17:13:27;65.28;;;34.00;;
76439;SDS011;65274;44.982;20.060;2023-02-15T17:18:26;138.02;;;62.67;;
76439;SDS011;65274;44.982;20.060;2023-02-15T17:21:01;122.90;;;56.33;;
76439;SDS011;65274;44.982;20.060;2023-02-15T17:23:41;225.10;;;97.25;;
76439;SDS011;65274;44.982;20.060;2023-02-15T17:28:47;165.18;;;71.82;;
76439;SDS011;65274;44.982;20.060;2023-02-15T17:31:18;194.35;;;81.45;;
76439;SDS011;65274;44.982;20.060;2023-02-15T17:33:45;191.55;;;84.72;;
76439;SDS011;65274;44.982;20.060;2023-02-15T17:38:39;125.63;;;58.40;;
76439;SDS011;65274;44.982;20.060;2023-02-15T17:41:05;89.93;;;42.30;;
76439;SDS011;65274;44.982;20.060;2023-02-15T17:43:32;106.00;;;54.30;;
76439;SDS011;65274;44.982;20.060;2023-02-15T17:45:58;182.90;;;86.32;;
76439;SDS011;65274;44.982;20.060;2023-02-15T17:48:28;159.35;;;66.45;;
76439;SDS011;65274;44.982;20.060;2023-02-15T17:50:57;227.82;;;82.72;;